^^
Saratoga-Weather Station Historical Data
Daily Summary for January 5, 2021 Units:  Metric    English   Both
Daily Weekly Monthly Yearly Custom
  High: Low: Average:
Temperature: 18.8 °C 14.9 °C 16.7 °C
Dew Point: 16.8 °C 13.3 °C 15.3 °C
Humidity: 96% 83% 91%
Wind Speed: 24.1km/h 0km/h 5.2km/h
Wind Gust: 25.7km/h - -
Wind- - West
Pressure: 1022.4 hPa 1018.0 hPa -
Precipitation: 2.0 mm    
Historical Graphs
 
 
Tabular Data for January 5, 2021
Time Temperature Dew Point Pressure Wind Wind Speed Wind Gust Humidity Rainfall Rate (Hourly) solar
00:04 16.9 °C 16.3 °C 1018.6 hPa West 1.4 km/h 9.7 km/h 96% 0.0 mm 0 W/m2
00:09 16.9 °C 16.3 °C 1019.0 hPa West 1.4 km/h 6.4 km/h 96% 0.0 mm 0 W/m2
00:14 16.9 °C 16.1 °C 1019.0 hPa WNW 7.9 km/h 11.3 km/h 95% 0.0 mm 0 W/m2
00:19 16.8 °C 16 °C 1019.0 hPa WNW 3.2 km/h 6.4 km/h 95% 0.0 mm 0 W/m2
00:24 16.7 °C 15.9 °C 1019.0 hPa WNW 3.2 km/h 6.4 km/h 95% 0.0 mm 0 W/m2
00:29 16.7 °C 15.9 °C 1019.0 hPa WNW 3.2 km/h 6.4 km/h 95% 0.0 mm 0 W/m2
00:34 16.6 °C 15.8 °C 1019.0 hPa WNW 3.2 km/h 8 km/h 95% 0.0 mm 0 W/m2
00:39 16.6 °C 16 °C 1019.0 hPa WNW 1.4 km/h 6.4 km/h 96% 0.0 mm 0 W/m2
00:44 16.6 °C 16 °C 1018.6 hPa NW 1.4 km/h 4.8 km/h 96% 0.0 mm 0 W/m2
00:49 16.5 °C 15.9 °C 1018.6 hPa WNW 1.4 km/h 3.2 km/h 96% 0.0 mm 0 W/m2
00:54 16.5 °C 15.9 °C 1018.6 hPa WNW 1.4 km/h 3.2 km/h 96% 0.0 mm 0 W/m2
00:59 16.4 °C 15.8 °C 1019.0 hPa Calm     96% 0.0 mm 0 W/m2
01:04 16.3 °C 15.7 °C 1019.0 hPa Calm   3.2 km/h 96% 0.0 mm 0 W/m2
01:09 16.3 °C 15.7 °C 1019.0 hPa Calm     96% 0.0 mm 0 W/m2
01:14 16.2 °C 15.6 °C 1019.0 hPa Calm   3.2 km/h 96% 0.0 mm 0 W/m2
01:19 16.2 °C 15.6 °C 1019.0 hPa Calm   1.6 km/h 96% 0.0 mm 0 W/m2
01:24 16.2 °C 15.6 °C 1019.0 hPa Calm   1.6 km/h 96% 0.0 mm 0 W/m2
01:29 16.2 °C 15.6 °C 1019.0 hPa Calm     96% 0.0 mm 0 W/m2
01:34 16.2 °C 15.6 °C 1019.0 hPa WNW 3.2 km/h 3.2 km/h 96% 0.0 mm 0 W/m2
01:39 16.3 °C 15.7 °C 1018.6 hPa WSW 6.4 km/h 6.4 km/h 96% 0.0 mm 0 W/m2
01:44 16.4 °C 15.8 °C 1018.6 hPa WNW 3.2 km/h 6.4 km/h 96% 0.0 mm 0 W/m2
01:49 16.5 °C 15.9 °C 1018.6 hPa Calm   1.6 km/h 96% 0.0 mm 0 W/m2
01:54 16.5 °C 15.9 °C 1018.6 hPa WNW 1.4 km/h 6.4 km/h 96% 0.0 mm 0 W/m2
01:59 16.4 °C 15.8 °C 1018.6 hPa Calm   1.6 km/h 96% 0.0 mm 0 W/m2
02:04 16.3 °C 15.7 °C 1018.3 hPa WNW 1.4 km/h 1.6 km/h 96% 0.0 mm 0 W/m2
02:09 16.3 °C 15.7 °C 1018.3 hPa Calm     96% 0.0 mm 0 W/m2
02:14 16.3 °C 15.7 °C 1018.3 hPa Calm     96% 0.0 mm 0 W/m2
02:19 16.3 °C 15.7 °C 1018.3 hPa Calm     96% 0.0 mm 0 W/m2
02:24 16.3 °C 15.7 °C 1018.3 hPa Calm     96% 0.0 mm 0 W/m2
02:29 16.3 °C 15.7 °C 1018.3 hPa West 4.7 km/h 4.8 km/h 96% 0.0 mm 0 W/m2
02:34 16.3 °C 15.7 °C 1018.3 hPa SW 4.7 km/h 4.8 km/h 96% 0.0 mm 0 W/m2
02:39 16.4 °C 15.8 °C 1018.3 hPa Calm   4.8 km/h 96% 0.0 mm 0 W/m2
02:44 16.5 °C 15.9 °C 1018.3 hPa WSW 1.4 km/h 3.2 km/h 96% 0.0 mm 0 W/m2
02:49 16.5 °C 15.9 °C 1018.6 hPa Calm   6.4 km/h 96% 0.0 mm 0 W/m2
02:54 16.6 °C 16 °C 1018.6 hPa Calm   1.6 km/h 96% 0.0 mm 0 W/m2
02:59 16.6 °C 16 °C 1018.6 hPa Calm   4.8 km/h 96% 0.0 mm 0 W/m2
03:04 16.6 °C 16 °C 1018.6 hPa ENE 1.4 km/h 1.6 km/h 96% 0.0 mm 0 W/m2
03:09 16.6 °C 16 °C 1018.6 hPa NNW 1.4 km/h 4.8 km/h 96% 0.0 mm 0 W/m2
03:14 16.7 °C 16.1 °C 1018.6 hPa Calm   3.2 km/h 96% 0.0 mm 0 W/m2
03:19 16.7 °C 16.1 °C 1018.3 hPa Calm   4.8 km/h 96% 0.0 mm 0 W/m2
03:24 16.6 °C 16 °C 1018.6 hPa SW 3.2 km/h 4.8 km/h 96% 0.0 mm 0 W/m2
03:29 16.6 °C 16 °C 1018.6 hPa West 4.7 km/h 4.8 km/h 96% 0.0 mm 0 W/m2
03:34 16.6 °C 16 °C 1018.6 hPa West 4.7 km/h 4.8 km/h 96% 0.0 mm 0 W/m2
03:39 16.7 °C 16.1 °C 1018.6 hPa West 3.2 km/h 9.7 km/h 96% 0.0 mm 0 W/m2
03:44 16.7 °C 16.1 °C 1018.3 hPa WNW 3.2 km/h 4.8 km/h 96% 0.0 mm 0 W/m2
03:49 16.7 °C 15.9 °C 1018.3 hPa NW 4.7 km/h 8 km/h 95% 0.0 mm 0 W/m2
03:54 16.7 °C 15.9 °C 1018.3 hPa WSW 1.4 km/h 3.2 km/h 95% 0.0 mm 0 W/m2
03:59 16.6 °C 15.8 °C 1018.3 hPa WNW 1.4 km/h 6.4 km/h 95% 0.0 mm 0 W/m2
04:04 16.6 °C 15.8 °C 1018.3 hPa WNW 1.4 km/h 1.6 km/h 95% 0.0 mm 0 W/m2
04:09 16.6 °C 15.8 °C 1018.6 hPa Calm   1.6 km/h 95% 0.0 mm 0 W/m2
04:14 16.6 °C 15.8 °C 1018.6 hPa Calm   1.6 km/h 95% 0.0 mm 0 W/m2
04:19 16.6 °C 15.8 °C 1018.6 hPa WNW 3.2 km/h 3.2 km/h 95% 0.0 mm 0 W/m2
04:24 16.6 °C 15.8 °C 1018.6 hPa WNW 1.4 km/h 1.6 km/h 95% 0.0 mm 0 W/m2
04:29 16.6 °C 15.8 °C 1018.3 hPa West 1.4 km/h 4.8 km/h 95% 0.0 mm 0 W/m2
04:34 16.6 °C 15.8 °C 1018.3 hPa WNW 3.2 km/h 9.7 km/h 95% 0.0 mm 0 W/m2
04:40 16.5 °C 15.7 °C 1018.3 hPa NW 6.4 km/h 8 km/h 95% 0.0 mm 0 W/m2
04:45 16.4 °C 15.6 °C 1018.3 hPa WNW 4.7 km/h 6.4 km/h 95% 0.0 mm 0 W/m2
04:50 16.4 °C 15.6 °C 1018.3 hPa WNW 1.4 km/h 6.4 km/h 95% 0.0 mm 0 W/m2
04:55 16.4 °C 15.6 °C 1018.3 hPa West 3.2 km/h 3.2 km/h 95% 0.0 mm 0 W/m2
05:00 16.4 °C 15.6 °C 1018.0 hPa Calm   3.2 km/h 95% 0.0 mm 0 W/m2
05:05 16.4 °C 15.6 °C 1018.3 hPa Calm     95% 0.0 mm 0 W/m2
05:10 16.4 °C 15.6 °C 1018.3 hPa Calm     95% 0.0 mm 0 W/m2
05:15 16.4 °C 15.6 °C 1018.3 hPa WSW 3.2 km/h 4.8 km/h 95% 0.0 mm 0 W/m2
05:20 16.3 °C 15.5 °C 1018.3 hPa Calm   1.6 km/h 95% 0.0 mm 0 W/m2
05:25 16.3 °C 15.5 °C 1018.3 hPa Calm     95% 0.0 mm 0 W/m2
05:30 16.3 °C 15.5 °C 1018.3 hPa Calm     95% 0.0 mm 0 W/m2
05:35 16.3 °C 15.5 °C 1018.3 hPa WSW 4.7 km/h 6.4 km/h 95% 0.0 mm 0 W/m2
05:40 16.3 °C 15.5 °C 1018.3 hPa West 3.2 km/h 4.8 km/h 95% 0.0 mm 0 W/m2
05:45 16.4 °C 15.6 °C 1018.3 hPa West 3.2 km/h 4.8 km/h 95% 0.0 mm 0 W/m2
05:50 16.3 °C 15.5 °C 1018.3 hPa West 3.2 km/h 4.8 km/h 95% 0.0 mm 0 W/m2
05:55 16.4 °C 15.6 °C 1018.3 hPa West 1.4 km/h 3.2 km/h 95% 0.0 mm 0 W/m2
06:00 16.4 °C 15.6 °C 1018.3 hPa WSW 1.4 km/h 1.6 km/h 95% 0.0 mm 7 W/m2
06:05 16.4 °C 15.6 °C 1018.3 hPa WSW 1.4 km/h 3.2 km/h 95% 0.0 mm 9 W/m2
06:10 16.4 °C 15.6 °C 1018.3 hPa Calm   4.8 km/h 95% 0.0 mm 12 W/m2
06:15 16.4 °C 15.6 °C 1018.3 hPa WSW 1.4 km/h 3.2 km/h 95% 0.0 mm 18 W/m2
06:20 16.4 °C 15.6 °C 1018.3 hPa West 1.4 km/h 4.8 km/h 95% 0.0 mm 21 W/m2
06:25 16.4 °C 15.6 °C 1018.3 hPa West 4.7 km/h 6.4 km/h 95% 0.0 mm 21 W/m2
06:30 16.4 °C 15.6 °C 1018.3 hPa WSW 3.2 km/h 4.8 km/h 95% 0.0 mm 21 W/m2
06:35 16.4 °C 15.6 °C 1018.3 hPa West 3.2 km/h 6.4 km/h 95% 0.0 mm 19 W/m2
06:40 16.5 °C 15.7 °C 1018.3 hPa West 3.2 km/h 3.2 km/h 95% 0.0 mm 16 W/m2
06:45 16.6 °C 15.6 °C 1018.3 hPa WSW 4.7 km/h 6.4 km/h 94% 0.0 mm 12 W/m2
06:50 16.6 °C 15.6 °C 1018.3 hPa West 3.2 km/h 4.8 km/h 94% 0.0 mm 14 W/m2
06:55 16.6 °C 15.6 °C 1018.6 hPa West 3.2 km/h 8 km/h 94% 0.0 mm 12 W/m2
07:00 16.6 °C 15.6 °C 1018.6 hPa West 3.2 km/h 4.8 km/h 94% 0.0 mm 11 W/m2
07:05 16.6 °C 15.6 °C 1018.6 hPa WNW 1.4 km/h 8 km/h 94% 0.0 mm 11 W/m2
07:10 16.6 °C 15.6 °C 1018.6 hPa WNW 1.4 km/h 4.8 km/h 94% 0.2 mm 14 W/m2
07:15 16.6 °C 15.6 °C 1018.6 hPa WNW 1.4 km/h 3.2 km/h 94% 0.2 mm 16 W/m2
07:20 16.6 °C 15.6 °C 1018.6 hPa WSW 3.2 km/h 3.2 km/h 94% 0.5 mm 25 W/m2
07:25 16.5 °C 15.5 °C 1019.0 hPa West 3.2 km/h 6.4 km/h 94% 0.5 mm 26 W/m2
07:30 16.5 °C 15.7 °C 1019.0 hPa West 1.4 km/h 1.6 km/h 95% 0.8 mm 32 W/m2
07:35 16.5 °C 15.7 °C 1019.0 hPa Calm   6.4 km/h 95% 1.0 mm 26 W/m2
07:40 16.4 °C 15.6 °C 1019.0 hPa SW 1.4 km/h 3.2 km/h 95% 1.3 mm 28 W/m2
07:45 16.5 °C 15.7 °C 1019.0 hPa SW 1.4 km/h 3.2 km/h 95% 1.3 mm 33 W/m2
07:50 16.4 °C 15.6 °C 1018.6 hPa West 1.4 km/h 3.2 km/h 95% 1.3 mm 42 W/m2
07:55 16.5 °C 15.7 °C 1018.6 hPa West 4.7 km/h 4.8 km/h 95% 1.3 mm 49 W/m2
08:00 16.6 °C 15.8 °C 1018.6 hPa West 1.4 km/h 3.2 km/h 95% 1.5 mm 62 W/m2
08:05 16.6 °C 15.8 °C 1018.6 hPa West 3.2 km/h 3.2 km/h 95% 1.8 mm 77 W/m2
08:10 16.6 °C 15.8 °C 1018.6 hPa West 3.2 km/h 3.2 km/h 95% 1.5 mm 98 W/m2
08:15 16.6 °C 15.8 °C 1018.6 hPa WNW 3.2 km/h 4.8 km/h 95% 1.5 mm 98 W/m2
08:20 16.7 °C 15.9 °C 1019.0 hPa WNW 3.2 km/h 3.2 km/h 95% 1.5 mm 93 W/m2
08:25 16.7 °C 15.9 °C 1019.0 hPa West 3.2 km/h 6.4 km/h 95% 1.3 mm 104 W/m2
08:30 16.7 °C 15.9 °C 1018.6 hPa WNW 3.2 km/h 6.4 km/h 95% 0.8 mm 114 W/m2
08:35 16.7 °C 15.9 °C 1018.6 hPa WSW 4.7 km/h 4.8 km/h 95% 0.8 mm 120 W/m2
08:40 16.8 °C 16 °C 1019.0 hPa WSW 1.4 km/h 3.2 km/h 95% 0.5 mm 125 W/m2
08:45 16.8 °C 16 °C 1019.0 hPa WNW 1.4 km/h 4.8 km/h 95% 0.5 mm 116 W/m2
08:50 16.9 °C 16.1 °C 1019.0 hPa WNW 1.4 km/h 3.2 km/h 95% 0.5 mm 91 W/m2
08:55 17 °C 16.2 °C 1019.0 hPa WNW 1.4 km/h 1.6 km/h 95% 0.5 mm 76 W/m2
09:01 17.1 °C 16.3 °C 1019.0 hPa West 1.4 km/h 3.2 km/h 95% 0.2 mm 81 W/m2
09:06 17.1 °C 16.1 °C 1019.0 hPa West 3.2 km/h 4.8 km/h 94% 0.0 mm 98 W/m2
09:11 17.1 °C 16.1 °C 1019.0 hPa Calm   3.2 km/h 94% 0.0 mm 95 W/m2
09:16 17.2 °C 16.4 °C 1019.0 hPa WNW 3.2 km/h 3.2 km/h 95% 0.0 mm 111 W/m2
09:21 17.2 °C 16.4 °C 1019.0 hPa WNW 3.2 km/h 4.8 km/h 95% 0.2 mm 120 W/m2
09:26 17.2 °C 16.2 °C 1019.0 hPa WNW 1.4 km/h 3.2 km/h 94% 0.2 mm 142 W/m2
09:31 17.3 °C 16.3 °C 1019.0 hPa Calm   1.6 km/h 94% 0.2 mm 111 W/m2
09:36 17.4 °C 16.4 °C 1019.0 hPa West 1.4 km/h 6.4 km/h 94% 0.2 mm 118 W/m2
09:41 17.4 °C 16.4 °C 1019.0 hPa WSW 3.2 km/h 6.4 km/h 94% 0.2 mm 72 W/m2
09:46 17.4 °C 16.4 °C 1019.0 hPa WNW 3.2 km/h 9.7 km/h 94% 0.2 mm 83 W/m2
09:51 17.4 °C 16.3 °C 1019.0 hPa NW 3.2 km/h 4.8 km/h 93% 0.2 mm 77 W/m2
09:56 17.6 °C 16.5 °C 1019.0 hPa West 3.2 km/h 9.7 km/h 93% 0.2 mm 100 W/m2
10:01 17.6 °C 16.5 °C 1019.0 hPa West 1.4 km/h 4.8 km/h 93% 0.2 mm 118 W/m2
10:06 17.7 °C 16.6 °C 1019.0 hPa West 1.4 km/h 8 km/h 93% 0.2 mm 137 W/m2
10:11 17.7 °C 16.6 °C 1019.0 hPa WSW 4.7 km/h 4.8 km/h 93% 0.2 mm 102 W/m2
10:16 17.8 °C 16.5 °C 1019.0 hPa WNW 3.2 km/h 4.8 km/h 92% 0.2 mm 102 W/m2
10:21 17.9 °C 16.8 °C 1019.3 hPa WNW 1.4 km/h 4.8 km/h 93% 0.0 mm 142 W/m2
10:26 17.9 °C 16.6 °C 1019.3 hPa WNW 4.7 km/h 8 km/h 92% 0.0 mm 139 W/m2
10:31 17.8 °C 16.5 °C 1019.0 hPa West 3.2 km/h 4.8 km/h 92% 0.0 mm 121 W/m2
10:36 17.9 °C 16.6 °C 1019.3 hPa WNW 1.4 km/h 4.8 km/h 92% 0.0 mm 137 W/m2
10:41 17.9 °C 16.6 °C 1019.0 hPa West 3.2 km/h 9.7 km/h 92% 0.0 mm 156 W/m2
10:46 17.9 °C 16.6 °C 1019.3 hPa West 11.1 km/h 11.3 km/h 92% 0.0 mm 156 W/m2
10:51 17.9 °C 16.6 °C 1019.3 hPa West 3.2 km/h 6.4 km/h 92% 0.0 mm 163 W/m2
10:56 17.9 °C 16.6 °C 1019.3 hPa WSW 6.4 km/h 11.3 km/h 92% 0.0 mm 183 W/m2
11:01 17.9 °C 16.6 °C 1019.3 hPa West 9.7 km/h 9.7 km/h 92% 0.0 mm 162 W/m2
11:06 17.9 °C 16.6 °C 1019.3 hPa WSW 6.4 km/h 8 km/h 92% 0.0 mm 128 W/m2
11:11 17.9 °C 16.4 °C 1019.3 hPa WNW 3.2 km/h 9.7 km/h 91% 0.0 mm 141 W/m2
11:16 17.8 °C 16.3 °C 1019.3 hPa West 6.4 km/h 9.7 km/h 91% 0.0 mm 156 W/m2
11:21 17.8 °C 16.5 °C 1019.3 hPa West 6.4 km/h 9.7 km/h 92% 0.0 mm 193 W/m2
11:26 17.8 °C 16.3 °C 1019.3 hPa West 11.1 km/h 14.5 km/h 91% 0.0 mm 199 W/m2
11:31 17.8 °C 16.3 °C 1019.3 hPa WNW 6.4 km/h 8 km/h 91% 0.0 mm 146 W/m2
11:36 17.8 °C 16.3 °C 1019.6 hPa West 11.1 km/h 14.5 km/h 91% 0.0 mm 155 W/m2
11:41 17.8 °C 16.3 °C 1019.3 hPa West 6.4 km/h 8 km/h 91% 0.0 mm 125 W/m2
11:46 17.7 °C 16.2 °C 1019.6 hPa WNW 3.2 km/h 11.3 km/h 91% 0.0 mm 100 W/m2
11:51 17.6 °C 16.1 °C 1019.3 hPa West 4.7 km/h 11.3 km/h 91% 0.0 mm 98 W/m2
11:56 17.6 °C 16.1 °C 1019.6 hPa WNW 7.9 km/h 14.5 km/h 91% 0.0 mm 81 W/m2
12:01 17.4 °C 15.9 °C 1019.6 hPa WNW 11.1 km/h 11.3 km/h 91% 0.0 mm 69 W/m2
12:06 17.3 °C 15.8 °C 1019.6 hPa West 4.7 km/h 16.1 km/h 91% 0.0 mm 72 W/m2
12:11 17.3 °C 16 °C 1019.6 hPa WNW 4.7 km/h 8 km/h 92% 0.0 mm 81 W/m2
12:16 17.3 °C 16 °C 1019.6 hPa NW 4.7 km/h 6.4 km/h 92% 0.0 mm 86 W/m2
12:21 17.3 °C 16 °C 1019.6 hPa WSW 6.4 km/h 17.7 km/h 92% 0.0 mm 91 W/m2
12:26 17.3 °C 16 °C 1019.6 hPa WNW 6.4 km/h 14.5 km/h 92% 0.0 mm 79 W/m2
12:31 17.3 °C 16 °C 1019.6 hPa WNW 3.2 km/h 17.7 km/h 92% 0.0 mm 86 W/m2
12:36 17.2 °C 15.9 °C 1019.6 hPa West 4.7 km/h 6.4 km/h 92% 0.0 mm 100 W/m2
12:41 17.3 °C 16.2 °C 1019.6 hPa West 3.2 km/h 4.8 km/h 93% 0.0 mm 125 W/m2
12:46 17.3 °C 16.2 °C 1019.6 hPa SW 4.7 km/h 6.4 km/h 93% 0.0 mm 120 W/m2
12:51 17.4 °C 16.3 °C 1019.6 hPa West 9.7 km/h 11.3 km/h 93% 0.0 mm 100 W/m2
12:56 17.4 °C 16.3 °C 1019.6 hPa West 6.4 km/h 11.3 km/h 93% 0.0 mm 118 W/m2
13:01 17.4 °C 16.1 °C 1019.6 hPa West 9.7 km/h 9.7 km/h 92% 0.0 mm 144 W/m2
13:06 17.4 °C 16.3 °C 1019.6 hPa West 6.4 km/h 6.4 km/h 93% 0.0 mm 186 W/m2
13:11 17.6 °C 16.5 °C 1019.6 hPa West 6.4 km/h 6.4 km/h 93% 0.0 mm 167 W/m2
13:16 17.6 °C 16.3 °C 1019.6 hPa WNW 6.4 km/h 9.7 km/h 92% 0.0 mm 135 W/m2
13:21 17.6 °C 16.5 °C 1019.6 hPa West 6.4 km/h 6.4 km/h 93% 0.0 mm 116 W/m2
13:26 17.6 °C 16.5 °C 1019.6 hPa West 9.7 km/h 9.7 km/h 93% 0.0 mm 160 W/m2
13:31 17.7 °C 16.6 °C 1019.6 hPa WNW 3.2 km/h 11.3 km/h 93% 0.0 mm 188 W/m2
13:36 17.8 °C 16.5 °C 1019.6 hPa WNW 6.4 km/h 11.3 km/h 92% 0.0 mm 218 W/m2
13:41 17.9 °C 16.4 °C 1019.6 hPa West 11.1 km/h 16.1 km/h 91% 0.0 mm 251 W/m2
13:46 18.2 °C 16.5 °C 1019.6 hPa WNW 3.2 km/h 4.8 km/h 90% 0.0 mm 299 W/m2
13:52 18.4 °C 16.4 °C 1019.6 hPa WNW 9.7 km/h 16.1 km/h 88% 0.0 mm 297 W/m2
13:57 18.6 °C 16.4 °C 1019.6 hPa WNW 3.2 km/h 16.1 km/h 87% 0.0 mm 323 W/m2
14:02 18.6 °C 16.2 °C 1020.0 hPa WNW 11.1 km/h 19.3 km/h 86% 0.0 mm 367 W/m2
14:07 18.6 °C 16.2 °C 1019.6 hPa WNW 7.9 km/h 19.3 km/h 86% 0.0 mm 425 W/m2
14:12 18.7 °C 16.5 °C 1019.6 hPa West 9.7 km/h 14.5 km/h 87% 0.0 mm 482 W/m2
14:17 18.8 °C 16.2 °C 1020.0 hPa WNW 13 km/h 22.5 km/h 85% 0.0 mm 668 W/m2
14:22 18.8 °C 16.2 °C 1020.0 hPa West 6.4 km/h 12.9 km/h 85% 0.0 mm 359 W/m2
14:27 18.7 °C 15.9 °C 1019.6 hPa West 9.7 km/h 16.1 km/h 84% 0.0 mm 380 W/m2
14:32 18.7 °C 15.9 °C 1019.6 hPa WNW 7.9 km/h 22.5 km/h 84% 0.0 mm 396 W/m2
14:37 18.7 °C 16.1 °C 1020.0 hPa WSW 19.5 km/h 19.3 km/h 85% 0.0 mm 374 W/m2
14:42 18.6 °C 15.8 °C 1019.6 hPa West 4.7 km/h 12.9 km/h 84% 0.0 mm 359 W/m2
14:47 18.6 °C 15.8 °C 1020.0 hPa West 4.7 km/h 19.3 km/h 84% 0.0 mm 367 W/m2
14:52 18.4 °C 15.6 °C 1020.0 hPa WNW 20.9 km/h 20.9 km/h 84% 0.0 mm 369 W/m2
14:57 18.4 °C 15.8 °C 1020.0 hPa WNW 11.1 km/h 12.9 km/h 85% 0.0 mm 362 W/m2
15:02 18.2 °C 15.6 °C 1020.0 hPa WSW 6.4 km/h 12.9 km/h 85% 0.0 mm 309 W/m2
15:07 18.2 °C 15.8 °C 1020.0 hPa NNW 16.3 km/h 24.1 km/h 86% 0.0 mm 299 W/m2
15:12 18 °C 15.4 °C 1020.0 hPa West 20.9 km/h 24.1 km/h 85% 0.0 mm 272 W/m2
15:17 17.8 °C 15.4 °C 1020.0 hPa West 11.1 km/h 17.7 km/h 86% 0.0 mm 272 W/m2
15:22 17.7 °C 15.3 °C 1020.0 hPa WNW 24.1 km/h 24.1 km/h 86% 0.0 mm 165 W/m2
15:27 17.4 °C 15 °C 1020.0 hPa WNW 11.1 km/h 20.9 km/h 86% 0.0 mm 176 W/m2
15:32 17.3 °C 15.3 °C 1020.0 hPa West 6.4 km/h 11.3 km/h 88% 0.0 mm 239 W/m2
15:37 17.3 °C 15.1 °C 1020.0 hPa West 14.3 km/h 20.9 km/h 87% 0.0 mm 234 W/m2
15:42 17.2 °C 15 °C 1020.0 hPa NW 4.7 km/h 17.7 km/h 87% 0.0 mm 279 W/m2
15:47 17.3 °C 15.3 °C 1020.0 hPa WSW 14.3 km/h 14.5 km/h 88% 0.0 mm 257 W/m2
15:52 17.5 °C 15.3 °C 1020.0 hPa West 6.4 km/h 11.3 km/h 87% 0.0 mm 271 W/m2
15:57 17.6 °C 15.4 °C 1020.0 hPa West 17.7 km/h 20.9 km/h 87% 0.0 mm 287 W/m2
16:02 17.6 °C 15.2 °C 1020.0 hPa WSW 4.7 km/h 12.9 km/h 86% 0.0 mm 341 W/m2
16:07 17.6 °C 15.2 °C 1020.0 hPa WNW 14.3 km/h 20.9 km/h 86% 0.0 mm 383 W/m2
16:12 17.7 °C 15.3 °C 1020.0 hPa West 9.7 km/h 17.7 km/h 86% 0.0 mm 455 W/m2
16:17 17.8 °C 15.4 °C 1020.0 hPa WNW 7.9 km/h 14.5 km/h 86% 0.0 mm 564 W/m2
16:22 18 °C 15.4 °C 1020.0 hPa West 11.1 km/h 19.3 km/h 85% 0.0 mm 545 W/m2
16:27 18.1 °C 15.5 °C 1020.0 hPa WNW 13 km/h 19.3 km/h 85% 0.0 mm 260 W/m2
16:32 17.9 °C 15.2 °C 1020.3 hPa West 11.1 km/h 20.9 km/h 84% 0.0 mm 422 W/m2
16:37 17.9 °C 15.3 °C 1020.0 hPa West 11.1 km/h 17.7 km/h 85% 0.0 mm 726 W/m2
16:42 18.1 °C 15.4 °C 1020.0 hPa West 14.3 km/h 19.3 km/h 84% 0.0 mm 475 W/m2
16:47 18.2 °C 15.3 °C 1020.0 hPa WSW 16.3 km/h 25.7 km/h 83% 0.0 mm 432 W/m2
16:52 18.2 °C 15.5 °C 1020.0 hPa NW 7.9 km/h 19.3 km/h 84% 0.0 mm 1016 W/m2
16:57 18.4 °C 15.5 °C 1020.0 hPa West 17.7 km/h 25.7 km/h 83% 0.0 mm 775 W/m2
17:02 18.3 °C 15.4 °C 1020.3 hPa NW 7.9 km/h 17.7 km/h 83% 0.0 mm 352 W/m2
17:07 18.1 °C 15.2 °C 1020.0 hPa WNW 6.4 km/h 19.3 km/h 83% 0.0 mm 276 W/m2
17:12 18 °C 15.3 °C 1020.3 hPa West 6.4 km/h 14.5 km/h 84% 0.0 mm 316 W/m2
17:17 17.9 °C 15.2 °C 1020.3 hPa West 6.4 km/h 14.5 km/h 84% 0.0 mm 309 W/m2
17:22 18.1 °C 15.2 °C 1020.3 hPa West 9.7 km/h 14.5 km/h 83% 0.0 mm 288 W/m2
17:27 17.9 °C 15 °C 1020.3 hPa WSW 13 km/h 17.7 km/h 83% 0.0 mm 214 W/m2
17:32 17.8 °C 15.1 °C 1020.7 hPa WSW 7.9 km/h 19.3 km/h 84% 0.0 mm 380 W/m2
17:37 17.7 °C 15 °C 1020.7 hPa West 9.7 km/h 14.5 km/h 84% 0.0 mm 221 W/m2
17:42 17.6 °C 14.9 °C 1020.7 hPa WSW 11.1 km/h 14.5 km/h 84% 0.0 mm 139 W/m2
17:47 17.3 °C 14.6 °C 1020.7 hPa NW 7.9 km/h 19.3 km/h 84% 0.0 mm 123 W/m2
17:52 16.9 °C 14.4 °C 1020.7 hPa West 9.7 km/h 16.1 km/h 85% 0.0 mm 185 W/m2
17:57 16.8 °C 14.3 °C 1020.7 hPa West 6.4 km/h 19.3 km/h 85% 0.0 mm 151 W/m2
18:02 16.8 °C 14.4 °C 1020.7 hPa West 11.1 km/h 24.1 km/h 86% 0.0 mm 207 W/m2
18:07 16.8 °C 14.4 °C 1020.7 hPa West 16.3 km/h 16.1 km/h 86% 0.0 mm 243 W/m2
18:12 16.8 °C 14.4 °C 1020.7 hPa WSW 11.1 km/h 24.1 km/h 86% 0.0 mm 230 W/m2
18:17 16.8 °C 14.3 °C 1020.7 hPa West 6.4 km/h 17.7 km/h 85% 0.0 mm 199 W/m2
18:22 16.8 °C 14.4 °C 1020.7 hPa NNW 6.4 km/h 14.5 km/h 86% 0.0 mm 139 W/m2
18:27 16.7 °C 14.3 °C 1020.7 hPa NNW 9.7 km/h 16.1 km/h 86% 0.0 mm 113 W/m2
18:32 16.7 °C 14.3 °C 1020.7 hPa WNW 6.4 km/h 12.9 km/h 86% 0.0 mm 167 W/m2
18:37 16.7 °C 14.3 °C 1020.7 hPa WSW 13 km/h 14.5 km/h 86% 0.0 mm 188 W/m2
18:42 16.7 °C 14.3 °C 1020.7 hPa WNW 9.7 km/h 12.9 km/h 86% 0.0 mm 185 W/m2
18:47 16.7 °C 14.2 °C 1020.7 hPa WNW 11.1 km/h 12.9 km/h 85% 0.0 mm 151 W/m2
18:52 16.7 °C 14.2 °C 1020.7 hPa WNW 3.2 km/h 14.5 km/h 85% 0.0 mm 172 W/m2
18:57 16.5 °C 14 °C 1020.7 hPa WNW 13 km/h 17.7 km/h 85% 0.0 mm 142 W/m2
19:02 16.4 °C 14.1 °C 1020.7 hPa WSW 13 km/h 14.5 km/h 86% 0.0 mm 105 W/m2
19:07 16.3 °C 14 °C 1020.7 hPa West 14.3 km/h 16.1 km/h 86% 0.0 mm 111 W/m2
19:12 16.3 °C 14 °C 1020.7 hPa West 6.4 km/h 14.5 km/h 86% 0.0 mm 125 W/m2
19:17 16.2 °C 13.9 °C 1020.7 hPa West 6.4 km/h 16.1 km/h 86% 0.0 mm 88 W/m2
19:22 16.2 °C 13.9 °C 1021.0 hPa WSW 4.7 km/h 12.9 km/h 86% 0.0 mm 60 W/m2
19:27 16.1 °C 13.8 °C 1020.7 hPa West 6.4 km/h 12.9 km/h 86% 0.0 mm 32 W/m2
19:32 16 °C 13.8 °C 1021.0 hPa WNW 6.4 km/h 6.4 km/h 87% 0.0 mm 35 W/m2
19:37 15.9 °C 13.7 °C 1021.0 hPa West 3.2 km/h 11.3 km/h 87% 0.0 mm 47 W/m2
19:42 15.8 °C 13.8 °C 1021.0 hPa WSW 6.4 km/h 9.7 km/h 88% 0.0 mm 49 W/m2
19:47 15.7 °C 13.7 °C 1021.0 hPa NW 6.4 km/h 11.3 km/h 88% 0.0 mm 40 W/m2
19:52 15.6 °C 13.8 °C 1021.0 hPa WSW 6.4 km/h 8 km/h 89% 0.0 mm 44 W/m2
19:57 15.5 °C 13.7 °C 1021.0 hPa West 11.1 km/h 12.9 km/h 89% 0.0 mm 72 W/m2
20:02 15.3 °C 13.7 °C 1021.0 hPa West 3.2 km/h 11.3 km/h 90% 0.0 mm 60 W/m2
20:07 15.3 °C 13.8 °C 1021.0 hPa West 6.4 km/h 9.7 km/h 91% 0.0 mm 26 W/m2
20:12 15.2 °C 13.7 °C 1021.0 hPa West 3.2 km/h 9.7 km/h 91% 0.0 mm 14 W/m2
20:17 15.1 °C 13.6 °C 1021.3 hPa WNW 4.7 km/h 12.9 km/h 91% 0.0 mm 11 W/m2
20:22 15.1 °C 13.6 °C 1021.3 hPa WNW 4.7 km/h 8 km/h 91% 0.0 mm 9 W/m2
20:27 15.1 °C 13.6 °C 1021.3 hPa West 9.7 km/h 12.9 km/h 91% 0.0 mm 11 W/m2
20:32 15.1 °C 13.6 °C 1021.3 hPa WNW 9.7 km/h 11.3 km/h 91% 0.0 mm 9 W/m2
20:37 15.1 °C 13.6 °C 1021.3 hPa WSW 6.4 km/h 6.4 km/h 91% 0.0 mm 5 W/m2
20:42 15.1 °C 13.6 °C 1021.3 hPa SW 6.4 km/h 9.7 km/h 91% 0.0 mm 5 W/m2
20:47 15 °C 13.5 °C 1021.3 hPa West 4.7 km/h 12.9 km/h 91% 0.0 mm 5 W/m2
20:52 14.9 °C 13.4 °C 1021.3 hPa WSW 4.7 km/h 11.3 km/h 91% 0.0 mm 5 W/m2
20:57 15 °C 13.5 °C 1021.3 hPa West 4.7 km/h 12.9 km/h 91% 0.0 mm 7 W/m2
21:02 14.9 °C 13.4 °C 1021.3 hPa WNW 1.4 km/h 6.4 km/h 91% 0.0 mm 7 W/m2
21:07 14.9 °C 13.4 °C 1021.7 hPa SW 7.9 km/h 8 km/h 91% 0.0 mm 5 W/m2
21:12 14.9 °C 13.4 °C 1021.3 hPa WNW 4.7 km/h 14.5 km/h 91% 0.0 mm 0 W/m2
21:17 14.9 °C 13.4 °C 1021.3 hPa WNW 4.7 km/h 11.3 km/h 91% 0.0 mm 0 W/m2
21:22 15 °C 13.5 °C 1021.7 hPa West 4.7 km/h 14.5 km/h 91% 0.0 mm 0 W/m2
21:27 15 °C 13.5 °C 1021.7 hPa West 4.7 km/h 9.7 km/h 91% 0.0 mm 0 W/m2
21:32 15 °C 13.5 °C 1021.7 hPa West 1.4 km/h 9.7 km/h 91% 0.0 mm 0 W/m2
21:37 15 °C 13.5 °C 1021.7 hPa WSW 4.7 km/h 9.7 km/h 91% 0.0 mm 0 W/m2
21:42 15 °C 13.5 °C 1021.7 hPa West 6.4 km/h 9.7 km/h 91% 0.0 mm 0 W/m2
21:47 15.1 °C 13.6 °C 1021.7 hPa WNW 6.4 km/h 11.3 km/h 91% 0.0 mm 0 W/m2
21:52 15.1 °C 13.5 °C 1021.7 hPa WNW 4.7 km/h 12.9 km/h 90% 0.0 mm 0 W/m2
21:57 15.1 °C 13.5 °C 1022.0 hPa WSW 6.4 km/h 9.7 km/h 90% 0.0 mm 0 W/m2
22:02 15.1 °C 13.5 °C 1022.0 hPa West 4.7 km/h 12.9 km/h 90% 0.0 mm 0 W/m2
22:07 15.1 °C 13.5 °C 1022.0 hPa WNW 3.2 km/h 6.4 km/h 90% 0.0 mm 0 W/m2
22:12 15.1 °C 13.5 °C 1022.0 hPa West 4.7 km/h 6.4 km/h 90% 0.0 mm 0 W/m2
22:17 15.1 °C 13.5 °C 1022.0 hPa West 3.2 km/h 11.3 km/h 90% 0.0 mm 0 W/m2
22:22 15.2 °C 13.6 °C 1022.0 hPa West 4.7 km/h 9.7 km/h 90% 0.0 mm 0 W/m2
22:27 15.2 °C 13.6 °C 1022.0 hPa NW 4.7 km/h 11.3 km/h 90% 0.0 mm 0 W/m2
22:32 15.2 °C 13.6 °C 1022.0 hPa WNW 3.2 km/h 8 km/h 90% 0.0 mm 0 W/m2
22:37 15.2 °C 13.6 °C 1022.0 hPa West 4.7 km/h 6.4 km/h 90% 0.0 mm 0 W/m2
22:42 15.2 °C 13.6 °C 1022.0 hPa West 4.7 km/h 6.4 km/h 90% 0.0 mm 0 W/m2
22:47 15.2 °C 13.6 °C 1022.0 hPa WNW 1.4 km/h 6.4 km/h 90% 0.0 mm 0 W/m2
22:52 15.2 °C 13.6 °C 1022.0 hPa WNW 3.2 km/h 6.4 km/h 90% 0.0 mm 0 W/m2
22:57 15.2 °C 13.4 °C 1022.0 hPa West 9.7 km/h 9.7 km/h 89% 0.0 mm 0 W/m2
23:02 15.1 °C 13.5 °C 1022.0 hPa WSW 3.2 km/h 11.3 km/h 90% 0.0 mm 0 W/m2
23:07 15.1 °C 13.5 °C 1022.0 hPa WSW 4.7 km/h 6.4 km/h 90% 0.0 mm 0 W/m2
23:13 15.1 °C 13.5 °C 1022.0 hPa WNW 4.7 km/h 9.7 km/h 90% 0.0 mm 0 W/m2
23:18 15.1 °C 13.5 °C 1022.0 hPa WSW 3.2 km/h 4.8 km/h 90% 0.0 mm 0 W/m2
23:23 15.1 °C 13.5 °C 1022.0 hPa West 3.2 km/h 6.4 km/h 90% 0.0 mm 0 W/m2
23:28 15.1 °C 13.5 °C 1022.0 hPa West 4.7 km/h 4.8 km/h 90% 0.0 mm 0 W/m2
23:33 15 °C 13.4 °C 1022.0 hPa WNW 3.2 km/h 6.4 km/h 90% 0.0 mm 0 W/m2
23:38 15 °C 13.4 °C 1022.4 hPa West 3.2 km/h 4.8 km/h 90% 0.0 mm 0 W/m2
23:43 14.9 °C 13.3 °C 1022.4 hPa West 3.2 km/h 6.4 km/h 90% 0.0 mm 0 W/m2
23:48 14.9 °C 13.3 °C 1022.0 hPa WNW 1.4 km/h 6.4 km/h 90% 0.0 mm 0 W/m2
23:53 14.9 °C 13.3 °C 1022.4 hPa West 6.4 km/h 6.4 km/h 90% 0.0 mm 0 W/m2
23:58 14.9 °C 13.3 °C 1022.4 hPa WSW 7.9 km/h 12.9 km/h 90% 0.0 mm 0 W/m2
Juneau County Weather
Compliments of Weather Underground - 4 mb